Latest Weather Observations for Cobar Airport

IDN60801

Issued at 5:35 pm EST Friday 19 September 2014 (issued every 30 minutes, with the page automatically refreshed every 10 minutes)

About weather observations | Map of weather stations | Latest weather observations for NSW | Other Formats
Station Details ID: 048237 Name: COBAR AIRPORT AWS Lat: -31.54 Lon: 145.80 Height: 218.0 m
Data from the previous 72 hours. | See also: Recent months for locations in New South Wales
Date/Time
EST
Temp
°C
App
Temp
°C
Dew
Point
Rel
Hum
%
Delta-T
°C
Wind Press
QNH
hPa
Press
MSL
hPa
Rain
since 9 am
mm
Dir
 
Spd
km/h
Gust
km/h
Spd
kts
Gust
kts
19/05:30pm 16.4 11.8 -1.2 30 7.4 SSE 13 19 7 10 1022.1 1021.8 0.0
19/05:00pm 16.5 11.9 -1.1 30 7.4 S 13 17 7 9 1022.0 1021.7 0.0
19/04:30pm 16.7 10.6 -2.4 27 7.9 S 20 24 11 13 1021.9 1021.6 0.0
19/04:00pm 17.0 11.1 -2.1 27 7.9 SSE 19 24 10 13 1021.6 1021.3 0.0
19/03:30pm 17.2 11.3 -1.0 29 7.8 SSW 20 26 11 14 1021.6 1021.3 0.0
19/03:00pm 17.1 11.7 -1.1 29 7.7 SSW 17 26 9 14 1021.7 1021.4 0.0
19/02:30pm 16.6 10.8 -1.5 29 7.6 SW 19 22 10 12 1021.8 1021.5 0.0
19/02:00pm 17.3 12.0 -0.4 30 7.6 S 17 26 9 14 1021.9 1021.6 0.0
19/01:30pm 16.4 11.5 -0.8 31 7.3 W 15 19 8 10 1022.1 1021.8 0.0
19/01:00pm 16.2 12.0 -0.9 31 7.2 SW 11 19 6 10 1022.5 1022.3 0.0
19/12:30pm 15.9 11.3 -0.8 32 7.1 WSW 13 19 7 10 1022.9 1022.7 0.0
19/12:00pm 15.7 9.9 -1.4 31 7.1 SW 19 24 10 13 1023.2 1023.0 0.0
19/11:30am 16.0 10.1 -1.1 31 7.2 SSW 20 24 11 13 1023.6 1023.4 0.0
19/11:00am 15.3 11.5 -0.4 34 6.6 SSE 9 15 5 8 1024.0 1023.8 0.0
19/10:30am 14.3 10.1 -0.9 35 6.3 ESE 11 15 6 8 1024.5 1024.2 0.0
19/10:00am 14.5 10.8 0.0 37 6.1 ESE 9 17 5 9 1024.5 1024.2 0.0
19/09:30am 14.3 10.3 0.5 39 5.9 E 11 19 6 10 1024.4 1024.1 0.0
19/09:00am 12.7 7.9 0.1 42 5.3 E 15 20 8 11 1024.4 1024.1 0.0
19/08:30am 11.8 7.4 0.3 45 4.8 ESE 13 19 7 10 1024.1 1023.9 0.0
19/08:00am 10.9 7.3 0.9 50 4.2 E 9 13 5 7 1023.9 1023.7 0.0
19/07:30am 8.7 6.8 0.4 56 3.4 CALM 0 0 0 0 1023.8 1023.6 0.0
19/07:00am 7.5 5.5 -0.2 58 3.0 CALM 0 4 0 2 1023.2 1023.0 0.0
19/06:30am 7.1 4.7 -0.4 59 2.9 ENE 2 6 1 3 1023.1 1022.9 0.0
19/06:00am 6.7 4.6 -1.0 58 2.9 CALM 0 0 0 0 1022.9 1022.7 0.0
19/05:30am 7.2 4.8 0.0 60 2.8 E 2 6 1 3 1022.6 1022.4 0.0
19/05:00am 7.1 5.0 -0.6 58 3.0 CALM 0 0 0 0 1022.7 1022.5 0.0
19/04:30am 6.9 4.8 -0.8 58 3.0 CALM 0 0 0 0 1022.5 1022.3 0.0
19/04:00am 6.9 4.8 -1.0 57 3.0 CALM 0 0 0 0 1022.4 1022.2 0.0
19/03:30am 6.7 4.5 -1.4 56 3.1 CALM 0 2 0 1 1022.4 1022.2 0.0
19/03:00am 6.2 4.0 -1.7 57 2.9 CALM 0 0 0 0 1022.4 1022.2 0.0
19/02:30am 6.1 3.9 -1.8 57 2.9 CALM 0 0 0 0 1022.5 1022.3 0.0
19/02:00am 6.0 3.7 -2.3 55 3.0 CALM 0 0 0 0 1022.7 1022.5 0.0
19/01:30am 6.3 2.9 -2.3 54 3.2 ENE 6 7 3 4 1022.7 1022.5 0.0
19/01:00am 6.9 3.2 -2.5 51 3.5 SE 7 9 4 5 1022.8 1022.6 0.0
19/12:30am 7.8 4.1 -2.5 48 3.9 SE 7 7 4 4 1023.0 1022.8 0.0
19/12:00am 8.8 4.8 -2.2 46 4.2 SE 9 11 5 6 1022.9 1022.7 0.0
 
Date/Time
EST
Temp
°C
App
Temp
°C
Dew
Point
Rel
Hum
%
Delta-T
°C
Wind Press
QNH
hPa
Press
MSL
hPa
Rain
since 9 am
mm
Dir
 
Spd
km/h
Gust
km/h
Spd
kts
Gust
kts
18/11:30pm 9.5 5.1 -2.4 43 4.6 SSE 11 15 6 8 1023.1 1022.9 0.0
18/11:00pm 9.7 5.0 -1.9 44 4.5 SSE 13 17 7 9 1023.3 1023.1 0.0
18/10:30pm 6.4 2.4 -5.6 42 4.1 SSE 7 7 4 4 1023.3 1023.1 0.0
18/10:00pm 9.3 5.4 -1.7 46 4.2 SSE 9 13 5 7 1023.2 1023.0 0.0
18/09:30pm 7.8 5.4 -3.4 45 4.1 CALM 0 0 0 0 1023.2 1023.0 0.0
18/09:00pm 8.1 5.1 -4.7 40 4.5 SSE 2 6 1 3 1023.0 1022.8 0.0
18/08:30pm 9.4 5.7 -4.2 38 5.0 S 6 7 3 4 1022.7 1022.5 0.0
18/08:00pm 10.7 6.9 -4.1 35 5.5 S 7 9 4 5 1022.5 1022.3 0.0
18/07:30pm 12.4 8.6 -3.8 32 6.2 SSW 7 9 4 5 1022.3 1022.1 0.0
18/07:00pm 13.6 9.4 -3.6 30 6.7 SSW 9 9 5 5 1022.1 1021.8 0.0
18/06:30pm 15.3 10.8 -3.6 27 7.5 WSW 11 17 6 9 1021.8 1021.5 0.0
18/06:00pm 16.9 12.0 -3.2 25 8.1 WSW 13 17 7 9 1021.4 1021.1 0.0
18/05:30pm 17.7 12.5 -3.1 24 8.5 SW 15 22 8 12 1021.1 1020.8 0.0
18/05:00pm 18.3 13.0 -3.2 23 8.8 SW 15 22 8 12 1020.9 1020.6 0.0
18/04:30pm 18.0 12.8 -2.8 24 8.6 SSW 15 24 8 13 1020.8 1020.5 0.0
18/04:00pm 18.8 12.8 -2.7 23 9.0 WSW 19 22 10 12 1020.8 1020.5 0.0
18/03:30pm 18.5 13.8 -1.9 25 8.7 W 13 20 7 11 1020.9 1020.6 0.0
18/03:00pm 18.4 12.3 -2.0 25 8.6 SW 20 28 11 15 1021.0 1020.7 0.0
18/02:30pm 18.7 12.9 -1.7 25 8.7 WSW 19 30 10 16 1021.1 1020.8 0.0
18/02:00pm 18.6 13.2 -1.3 26 8.5 WSW 17 30 9 16 1021.3 1021.0 0.0
18/01:30pm 17.3 12.2 -1.9 27 8.1 SW 15 26 8 14 1021.8 1021.5 0.0
18/01:00pm 17.6 12.1 0.3 31 7.6 WSW 19 26 10 14 1022.1 1021.8 0.0
18/12:30pm 17.4 11.6 0.1 31 7.6 SW 20 32 11 17 1022.6 1022.4 0.0
18/12:00pm 16.7 10.5 -0.1 32 7.2 SSW 22 28 12 15 1023.0 1022.8 0.0
18/11:30am 15.9 9.7 -0.3 33 6.9 SSW 22 35 12 19 1023.7 1023.5 0.0
18/11:00am 15.5 9.4 0.5 36 6.5 SSW 22 39 12 21 1024.1 1023.9 0.0
18/10:30am 14.8 8.7 0.6 38 6.1 SW 22 33 12 18 1024.6 1024.3 0.0
18/10:00am 14.2 8.5 0.8 40 5.8 SSW 20 35 11 19 1025.0 1024.7 0.0
18/09:30am 13.9 8.8 0.9 41 5.6 SSW 17 26 9 14 1025.1 1024.8 0.0
18/09:00am 13.0 9.0 0.7 43 5.2 SSE 11 17 6 9 1024.8 1024.5 0.0
18/08:30am 11.5 7.8 0.0 45 4.8 S 9 17 5 9 1024.6 1024.3 0.0
18/08:00am 9.9 6.5 -0.3 49 4.1 S 7 9 4 5 1024.2 1024.0 0.0
18/07:30am 6.5 4.4 -0.7 60 2.8 CALM 0 0 0 0 1023.7 1023.5 0.0
18/07:00am 3.5 1.3 -1.8 68 1.9 CALM 0 0 0 0 1023.4 1023.2 0.0
18/06:30am 1.6 -0.7 -2.5 74 1.4 CALM 0 0 0 0 1023.1 1022.9 0.0
18/06:00am 1.6 -0.7 -2.2 76 1.3 CALM 0 0 0 0 1022.8 1022.6 0.0
18/05:30am 2.2 -0.1 -2.3 72 1.6 CALM 0 0 0 0 1022.7 1022.5 0.0
18/05:00am 2.1 -0.2 -2.6 71 1.6 CALM 0 0 0 0 1022.5 1022.3 0.0
18/04:30am 2.5 -0.2 -2.4 70 1.7 NNE 2 6 1 3 1022.2 1022.0 0.0
18/04:00am 3.0 0.7 -2.1 69 1.8 CALM 0 0 0 0 1021.7 1021.4 0.0
18/03:30am 3.5 1.2 -2.0 67 2.0 CALM 0 6 0 3 1021.6 1021.3 0.0
18/03:00am 3.2 0.5 -2.3 67 1.9 SW 2 7 1 4 1021.7 1021.4 0.0
18/02:30am 3.2 0.5 -2.1 68 1.9 SW 2 6 1 3 1021.5 1021.2 0.0
18/02:00am 3.7 1.4 -2.0 66 2.0 CALM 0 0 0 0 1021.3 1021.0 0.0
18/01:30am 4.0 1.7 -2.2 64 2.2 CALM 0 0 0 0 1021.2 1020.9 0.0
18/01:00am 4.6 2.4 -1.8 63 2.3 CALM 0 0 0 0 1021.4 1021.1 0.0
18/12:30am 5.0 2.8 -1.7 62 2.5 CALM 0 0 0 0 1021.3 1021.0 0.0
18/12:00am 5.7 3.5 -1.7 59 2.7 CALM 0 0 0 0 1021.4 1021.1 0.0
 
Date/Time
EST
Temp
°C
App
Temp
°C
Dew
Point
Rel
Hum
%
Delta-T
°C
Wind Press
QNH
hPa
Press
MSL
hPa
Rain
since 9 am
mm
Dir
 
Spd
km/h
Gust
km/h
Spd
kts
Gust
kts
17/11:30pm 6.3 4.1 -1.3 58 2.9 CALM 0 0 0 0 1021.2 1020.9 0.0
17/11:00pm 6.8 4.6 -1.3 56 3.1 CALM 0 0 0 0 1020.8 1020.5 0.0
17/10:30pm 7.6 5.4 -1.4 53 3.5 CALM 0 0 0 0 1020.9 1020.6 0.0
17/10:00pm 8.1 5.9 -1.4 51 3.6 CALM 0 0 0 0 1020.8 1020.5 0.0
17/09:30pm 9.3 7.1 -1.4 47 4.2 CALM 0 0 0 0 1020.6 1020.3 0.0
17/09:00pm 10.7 8.5 -1.7 42 4.9 CALM 0 0 0 0 1020.4 1020.1 0.0
17/08:30pm 12.9 9.6 -1.1 38 5.7 SSW 6 7 3 4 1020.1 1019.8 0.0
17/08:00pm 14.3 9.7 -0.9 35 6.3 SSW 13 17 7 9 1019.7 1019.4 0.0
17/07:30pm 15.4 10.1 -0.8 33 6.8 SSW 17 22 9 12 1019.3 1019.1 0.0
17/07:00pm 16.0 10.6 -1.5 30 7.3 SW 17 22 9 12 1018.8 1018.6 0.0
17/06:30pm 16.4 11.3 -1.7 29 7.6 WSW 15 20 8 11 1018.3 1018.1 0.0
17/06:00pm 17.4 11.4 -1.8 27 8.1 WSW 20 30 11 16 1017.8 1017.5 0.0
17/05:30pm 18.4 12.4 -1.4 26 8.5 WSW 20 30 11 16 1017.4 1017.1 0.0
17/05:00pm 18.9 12.2 -1.0 26 8.6 SW 24 35 13 19 1017.0 1016.7 0.0
17/04:30pm 18.9 12.7 0.0 28 8.4 WSW 22 43 12 23 1016.7 1016.4 0.0
17/04:00pm 18.4 11.6 0.5 30 8.0 SW 26 37 14 20 1016.4 1016.1 0.0
17/03:30pm 19.9 13.5 0.9 28 8.6 SW 24 37 13 20 1016.2 1015.9 0.0
17/03:00pm 18.9 12.1 0.5 29 8.2 W 26 39 14 21 1016.2 1015.9 0.0
17/02:30pm 18.9 11.7 0.5 29 8.2 W 28 37 15 20 1016.3 1016.0 0.0
17/02:00pm 18.8 11.5 -0.1 28 8.3 WSW 28 43 15 23 1016.5 1016.2 0.0
17/01:30pm 21.3 14.3 2.1 28 9.0 WSW 28 35 15 19 1016.5 1016.2 0.0
17/01:00pm 18.8 12.4 0.9 30 8.0 WSW 24 35 13 19 1016.9 1016.6 0.0
17/12:30pm 20.5 13.9 2.3 30 8.5 W 26 35 14 19 1017.0 1016.7 0.0
17/12:00pm 18.7 12.9 2.1 33 7.6 WSW 22 33 12 18 1017.4 1017.1 0.0
17/11:30am 18.3 11.8 0.4 30 7.9 W 24 32 13 17 1017.6 1017.3 0.0
17/11:00am 18.2 13.9 1.3 32 7.6 WSW 13 19 7 10 1018.0 1017.7 0.0
17/10:30am 17.1 12.6 2.3 37 6.8 WSW 15 20 8 11 1018.5 1018.3 0.0
17/10:00am 16.7 11.6 3.0 40 6.3 SW 19 28 10 15 1018.4 1018.2 0.0
17/09:30am 17.0 13.1 3.3 40 6.4 S 13 20 7 11 1018.1 1017.8 0.0
17/09:00am 15.3 11.0 3.5 45 5.4 S 15 19 8 10 1018.1 1017.8 -
17/08:30am 14.9 10.2 3.4 46 5.3 SSW 17 22 9 12 1017.9 1017.6 -
17/08:00am 14.0 8.7 3.2 48 4.9 SSW 20 30 11 16 1017.8 1017.5 -
17/07:30am 10.0 8.1 2.8 61 3.1 NE 2 6 1 3 1017.5 1017.2 -
17/07:00am 7.5 4.6 2.4 70 2.1 NE 7 9 4 5 1017.0 1016.7 -
17/06:30am 5.4 3.6 1.0 73 1.7 CALM 0 0 0 0 1016.9 1016.6 -
17/06:00am 5.8 2.8 1.7 75 1.7 NE 7 11 4 6 1016.7 1016.4 -
17/05:30am 5.9 4.1 1.1 71 1.9 CALM 0 0 0 0 1016.3 1016.0 -
17/05:00am 7.3 5.6 1.8 68 2.3 CALM 0 0 0 0 1016.3 1016.0 -
17/04:30am 7.9 6.3 2.2 67 2.4 CALM 0 0 0 0 1016.3 1016.0 -
17/04:00am 8.4 6.8 2.6 67 2.5 CALM 0 0 0 0 1016.1 1015.8 -
17/03:30am 8.1 6.5 2.6 68 2.3 CALM 0 0 0 0 1016.0 1015.7 -
17/03:00am 7.3 5.7 2.2 70 2.1 CALM 0 0 0 0 1016.1 1015.8 0.0
17/02:30am 6.6 4.9 1.7 71 2.0 CALM 0 0 0 0 1016.3 1016.0 -
17/02:00am 6.7 4.9 1.4 69 2.2 CALM 0 0 0 0 1016.3 1016.0 -
17/01:30am 7.0 5.3 1.7 69 2.2 CALM 0 0 0 0 1016.4 1016.1 -
17/01:00am 6.7 4.8 0.8 66 2.4 CALM 0 0 0 0 1016.4 1016.1 -
17/12:30am 7.5 4.7 1.8 67 2.4 N 6 6 3 3 1016.4 1016.1 -
17/12:00am 7.6 4.8 1.9 67 2.4 N 6 7 3 4 1016.4 1016.1 -
 
Date/Time
EST
Temp
°C
App
Temp
°C
Dew
Point
Rel
Hum
%
Delta-T
°C
Wind Press
QNH
hPa
Press
MSL
hPa
Rain
since 9 am
mm
Dir
 
Spd
km/h
Gust
km/h
Spd
kts
Gust
kts
16/11:30pm 8.0 6.3 1.6 64 2.7 CALM 0 0 0 0 1016.3 1016.0 -
16/11:00pm 8.6 6.9 2.0 63 2.8 CALM 0 0 0 0 1016.3 1016.0 -
16/10:30pm 9.5 8.0 2.8 63 2.9 CALM 0 0 0 0 1016.2 1015.9 -
16/10:00pm 9.8 8.2 2.2 59 3.2 CALM 0 0 0 0 1016.1 1015.8 -
16/09:30pm 10.5 9.0 2.8 59 3.4 CALM 0 0 0 0 1015.9 1015.6 -
16/09:00pm 11.8 10.4 3.3 56 3.8 CALM 0 0 0 0 1015.6 1015.3 -
16/08:30pm 12.3 10.7 2.7 52 4.2 CALM 0 0 0 0 1015.5 1015.2 -
16/08:00pm 13.8 12.0 3.3 49 4.8 W 2 6 1 3 1015.0 1014.7 -
16/07:30pm 15.2 12.4 3.4 45 5.4 WSW 7 9 4 5 1014.7 1014.4 -
16/07:00pm 16.1 13.0 3.5 43 5.9 WSW 9 13 5 7 1014.3 1014.1 -
16/06:30pm 17.2 14.1 3.8 41 6.3 WSW 9 13 5 7 1014.1 1013.8 -
16/06:00pm 18.3 13.7 3.8 38 6.9 SW 17 24 9 13 1013.9 1013.6 -

Other Formats:

Comma delimited format used in spreadsheet applications
http://www.bom.gov.au/fwo/IDN60801/IDN60801.94710.axf

JavaScript Object Notation format (JSON) in row-major order
http://www.bom.gov.au/fwo/IDN60801/IDN60801.94710.json